Time;durP1;ratioP1;P1;durP2;ratioP2;P2;SDS_P1;SDS_P2;PMS_P1;PMS_P2;Temp;Humidity;BMP_temperature;BMP_pressure;BME280_temperature;BME280_humidity;BME280_pressure;Samples;Min_cycle;Max_cycle;Signal;HPM_P1;HPM_P2
2023/08/16 00:00:15;;;;;;;9.35;3.38;;;;;;;19.56;80.39;101709.31;5285239;28;20035;-77
2023/08/16 00:02:48;;;;;;;5.63;3.40;;;;;;;19.52;81.08;101712.97;5267282;28;20044;-75
2023/08/16 00:05:19;;;;;;;7.10;3.67;;;;;;;19.53;81.83;101705.88;5284947;28;20119;-77
2023/08/16 00:07:50;;;;;;;9.27;3.50;;;;;;;19.38;81.97;101704.66;5284863;28;20166;-77
2023/08/16 00:10:22;;;;;;;6.53;3.27;;;;;;;19.45;83.92;101711.47;5285022;28;20033;-77
2023/08/16 00:12:53;;;;;;;7.03;3.73;;;;;;;19.46;83.53;101713.19;5285358;28;20032;-76
2023/08/16 00:15:26;;;;;;;8.53;3.73;;;;;;;19.44;81.89;101721.16;5285102;28;20067;-77
2023/08/16 00:17:57;;;;;;;7.70;3.22;;;;;;;19.39;83.52;101714.34;5284937;28;20036;-76
2023/08/16 00:20:29;;;;;;;5.93;3.57;;;;;;;19.44;83.74;101713.25;5284573;28;20029;-77
2023/08/16 00:23:00;;;;;;;8.70;3.27;;;;;;;19.47;84.12;101714.91;5284834;28;20033;-76
2023/08/16 00:25:31;;;;;;;10.73;3.47;;;;;;;19.25;84.35;101709.50;5284168;28;20029;-77
2023/08/16 00:28:03;;;;;;;9.30;4.27;;;;;;;19.27;83.36;101712.94;5266759;28;20373;-76
2023/08/16 00:30:34;;;;;;;8.32;3.88;;;;;;;19.21;85.15;101715.84;5284550;28;20032;-76
2023/08/16 00:33:06;;;;;;;6.70;3.27;;;;;;;19.21;84.10;101713.19;5284530;28;20473;-76
2023/08/16 00:35:37;;;;;;;7.20;4.00;;;;;;;19.13;83.82;101716.09;5284068;28;20029;-77
2023/08/16 00:38:09;;;;;;;6.47;3.87;;;;;;;19.09;85.12;101717.09;5284841;28;20024;-77
2023/08/16 00:40:40;;;;;;;7.70;4.50;;;;;;;19.01;85.42;101714.69;5284905;28;20475;-77
2023/08/16 00:43:11;;;;;;;8.90;3.87;;;;;;;18.92;85.30;101713.25;5284511;28;20024;-76
2023/08/16 00:45:45;;;;;;;9.47;5.43;;;;;;;18.83;86.30;101726.72;5284564;28;20485;-77
2023/08/16 00:48:18;;;;;;;8.32;4.68;;;;;;;18.82;87.20;101732.94;5267022;28;20044;-76
2023/08/16 00:50:49;;;;;;;8.98;4.57;;;;;;;18.73;87.36;101731.44;5284485;28;20090;-76
2023/08/16 00:53:22;;;;;;;8.18;4.82;;;;;;;18.69;88.90;101735.09;5284228;28;20100;-77
2023/08/16 00:55:53;;;;;;;7.95;4.75;;;;;;;18.61;88.53;101733.59;5284776;28;20155;-76
2023/08/16 00:58:26;;;;;;;6.63;4.63;;;;;;;18.47;88.82;101739.31;5284463;28;20119;-76
2023/08/16 01:00:58;;;;;;;7.45;5.07;;;;;;;18.55;89.30;101737.31;5284084;28;20041;-76
2023/08/16 01:03:29;;;;;;;10.32;4.68;;;;;;;18.50;89.11;101742.72;5284075;28;20511;-77
2023/08/16 01:06:01;;;;;;;7.10;5.10;;;;;;;18.53;90.12;101733.81;5284281;28;20033;-76
2023/08/16 01:08:33;;;;;;;10.30;4.93;;;;;;;18.56;90.16;101741.66;5283946;28;20369;-77
2023/08/16 01:11:13;;;;;;;13.30;5.30;;;;;;;18.45;90.41;101744.63;5283676;28;20032;-76
2023/08/16 01:13:55;;;;;;;7.03;4.57;;;;;;;18.54;90.62;101751.41;5266581;28;20083;-78
2023/08/16 01:16:28;;;;;;;9.20;5.45;;;;;;;18.57;90.78;101746.88;5283915;28;20033;-76
2023/08/16 01:19:00;;;;;;;8.55;4.85;;;;;;;18.58;91.32;101745.13;5283787;28;20155;-76
2023/08/16 01:21:32;;;;;;;;;;;;;;;18.78;88.42;101750.63;5265929;28;20033;-77
2023/08/16 01:24:26;;;;;;;8.20;4.73;;;;;;;18.63;90.81;101747.59;5283644;28;19912;-78
2023/08/16 01:26:58;;;;;;;8.48;5.20;;;;;;;18.73;91.22;101755.19;5283851;28;20032;-77
2023/08/16 01:29:30;;;;;;;10.50;5.03;;;;;;;18.67;90.44;101765.94;5265930;28;20051;-76
2023/08/16 01:32:02;;;;;;;;;;;;;;;18.85;88.53;101767.22;5284182;28;20036;-77
2023/08/16 01:34:33;;;;;;;8.73;5.30;;;;;;;18.73;90.16;101763.13;5283520;28;20368;-76
2023/08/16 01:37:04;;;;;;;8.47;6.07;;;;;;;18.75;90.74;101773.63;5282863;28;20052;-77
2023/08/16 01:39:38;;;;;;;6.67;4.40;;;;;;;18.69;92.01;101765.91;5283600;28;20060;-78
2023/08/16 01:42:15;;;;;;;7.60;4.88;;;;;;;18.58;92.34;101768.91;5265838;28;20077;-77
2023/08/16 01:44:49;;;;;;;6.95;4.85;;;;;;;18.58;91.69;101766.25;5283495;28;20062;-76
2023/08/16 01:47:21;;;;;;;10.32;5.68;;;;;;;18.53;92.30;101758.47;5283748;28;20033;-76
2023/08/16 01:49:54;;;;;;;11.93;5.80;;;;;;;18.50;91.94;101761.19;5282695;28;20532;-78
2023/08/16 01:52:27;;;;;;;13.02;5.78;;;;;;;18.55;92.59;101758.44;5283359;28;20040;-76
2023/08/16 01:54:59;;;;;;;9.13;5.93;;;;;;;18.45;92.04;101765.75;5265560;28;20029;-76
2023/08/16 01:57:30;;;;;;;7.07;5.33;;;;;;;18.35;92.65;101756.38;5283032;28;20032;-76
2023/08/16 02:00:03;;;;;;;8.93;5.53;;;;;;;18.29;92.65;101764.47;5283264;28;20033;-76
2023/08/16 02:02:34;;;;;;;8.68;5.80;;;;;;;18.23;93.25;101766.38;5265251;28;20067;-77
2023/08/16 02:05:06;;;;;;;8.90;5.53;;;;;;;18.23;93.42;101761.09;5265422;28;20060;-77
2023/08/16 02:07:38;;;;;;;10.55;5.85;;;;;;;18.42;93.36;101768.50;5283177;28;20166;-77
2023/08/16 02:10:09;;;;;;;9.55;5.57;;;;;;;18.30;93.11;101777.63;5282815;28;20503;-77
2023/08/16 02:12:40;;;;;;;8.63;5.47;;;;;;;18.31;93.61;101770.59;5282969;28;20387;-77
2023/08/16 02:15:13;;;;;;;9.37;6.43;;;;;;;18.02;93.44;101767.88;5283101;28;20028;-76
2023/08/16 02:17:44;;;;;;;9.60;6.30;;;;;;;17.94;93.85;101764.59;5283193;28;20468;-76
2023/08/16 02:20:16;;;;;;;12.40;6.27;;;;;;;17.80;94.97;101772.84;5282712;28;20119;-78
2023/08/16 02:22:47;;;;;;;7.53;6.57;;;;;;;17.89;95.08;101773.50;5282947;28;20040;-77
2023/08/16 02:25:18;;;;;;;11.63;7.00;;;;;;;18.11;94.67;101771.16;5283004;28;20032;-78
2023/08/16 02:27:50;;;;;;;10.87;7.23;;;;;;;18.06;94.02;101773.91;5283125;28;20048;-78
2023/08/16 02:30:21;;;;;;;11.40;7.50;;;;;;;17.94;94.08;101771.63;5283406;28;20060;-77
2023/08/16 02:32:54;;;;;;;8.60;6.70;;;;;;;17.87;93.72;101770.91;5282897;28;20028;-76
2023/08/16 02:35:25;;;;;;;12.32;6.55;;;;;;;17.89;93.72;101770.88;5282915;28;20025;-76
2023/08/16 02:37:57;;;;;;;11.07;7.30;;;;;;;17.79;94.22;101764.97;5285150;28;20057;-75
2023/08/16 02:40:29;;;;;;;11.13;7.88;;;;;;;17.79;94.76;101760.56;5265465;28;20040;-77
2023/08/16 02:43:00;;;;;;;8.70;6.97;;;;;;;17.73;94.34;101758.09;5283703;28;20449;-76
2023/08/16 02:45:31;;;;;;;13.53;8.53;;;;;;;17.70;94.43;101758.19;5282993;28;20037;-75
2023/08/16 02:48:03;;;;;;;10.20;7.30;;;;;;;17.73;95.05;101754.59;5284550;28;20094;-77
2023/08/16 02:50:34;;;;;;;13.18;7.15;;;;;;;17.79;95.07;101750.03;5286789;28;20074;-77
2023/08/16 02:53:06;;;;;;;12.40;7.40;;;;;;;17.58;95.46;101751.47;5286836;28;20117;-77
2023/08/16 02:55:39;;;;;;;11.37;7.53;;;;;;;17.42;95.78;101753.66;5286213;28;20056;-77
2023/08/16 02:58:10;;;;;;;8.70;7.20;;;;;;;17.52;96.42;101763.94;5286474;28;20031;-77
2023/08/16 03:00:42;;;;;;;9.63;7.70;;;;;;;17.50;96.32;101770.13;5286561;28;20036;-77
2023/08/16 03:03:13;;;;;;;14.10;7.03;;;;;;;17.41;96.50;101767.72;5286519;28;20464;-78
2023/08/16 03:05:45;;;;;;;13.27;7.57;;;;;;;17.47;96.61;101759.66;5286444;28;20124;-76
2023/08/16 03:08:16;;;;;;;11.63;7.60;;;;;;;17.37;96.49;101763.44;5286449;28;20025;-76
2023/08/16 03:10:47;;;;;;;10.30;6.77;;;;;;;17.42;96.38;101766.81;5286337;28;20036;-77
2023/08/16 03:13:19;;;;;;;8.67;6.83;;;;;;;17.37;96.46;101765.19;5286396;28;20052;-77
2023/08/16 03:15:50;;;;;;;8.70;7.23;;;;;;;17.37;97.06;101768.72;5268285;28;20033;-77
2023/08/16 03:18:21;;;;;;;9.37;6.97;;;;;;;17.41;96.68;101766.88;5286224;28;20464;-77
2023/08/16 03:20:53;;;;;;;10.13;7.40;;;;;;;17.57;97.24;101770.81;5268032;28;20048;-76
2023/08/16 03:23:24;;;;;;;11.23;6.97;;;;;;;17.61;96.56;101777.75;5286079;28;20037;-76
2023/08/16 03:25:56;;;;;;;8.47;6.80;;;;;;;17.63;96.58;101772.44;5286077;28;20111;-77
2023/08/16 03:28:27;;;;;;;8.53;6.47;;;;;;;17.49;96.40;101764.88;5286093;28;20029;-77
2023/08/16 03:30:58;;;;;;;9.37;7.00;;;;;;;17.38;96.36;101762.53;5285926;28;20029;-77
2023/08/16 03:33:30;;;;;;;7.90;6.97;;;;;;;17.38;97.08;101762.53;5286011;28;20024;-77
2023/08/16 03:36:01;;;;;;;10.30;6.93;;;;;;;17.28;98.11;101756.63;5285783;28;20058;-77
2023/08/16 03:38:32;;;;;;;7.97;7.03;;;;;;;17.16;98.41;101769.22;5285965;28;20025;-77
2023/08/16 03:41:04;;;;;;;10.77;7.37;;;;;;;17.17;98.47;101773.63;5285896;28;20060;-76
2023/08/16 03:43:38;;;;;;;11.20;7.57;;;;;;;17.16;98.94;101774.50;5285507;28;20476;-76
2023/08/16 03:46:10;;;;;;;10.88;7.13;;;;;;;17.16;99.22;101775.38;5268388;28;20041;-77
2023/08/16 03:48:41;;;;;;;8.53;7.10;;;;;;;17.14;99.16;101783.31;5285523;28;20537;-77
2023/08/16 03:51:12;;;;;;;11.37;7.53;;;;;;;17.19;100.00;101782.34;5285294;28;20527;-76
2023/08/16 03:53:44;;;;;;;9.10;7.13;;;;;;;17.29;99.38;101782.09;5285264;28;20472;-78
2023/08/16 03:56:15;;;;;;;13.23;9.03;;;;;;;17.04;99.34;101788.84;5285768;28;20037;-77
2023/08/16 03:58:47;;;;;;;9.73;7.50;;;;;;;16.98;99.96;101795.13;5287356;28;20482;-77
2023/08/16 04:01:18;;;;;;;10.80;8.57;;;;;;;16.95;100.00;101793.44;5287250;28;20025;-78
2023/08/16 04:03:49;;;;;;;9.30;7.50;;;;;;;16.93;100.00;101789.94;5287608;28;20503;-77
2023/08/16 04:06:21;;;;;;;10.07;8.33;;;;;;;16.83;100.00;101784.91;5287720;28;20083;-77
2023/08/16 04:08:52;;;;;;;9.37;7.67;;;;;;;16.75;100.00;101796.47;5287513;28;20044;-77
2023/08/16 04:11:24;;;;;;;11.10;8.03;;;;;;;16.75;100.00;101793.00;5287742;28;20036;-77
2023/08/16 04:13:55;;;;;;;10.57;8.23;;;;;;;16.83;100.00;101800.72;5287476;28;20029;-77
2023/08/16 04:16:26;;;;;;;10.17;7.87;;;;;;;16.67;100.00;101798.41;5286908;28;20064;-76
2023/08/16 04:18:58;;;;;;;12.50;7.70;;;;;;;16.65;100.00;101802.84;5287296;28;20499;-76
2023/08/16 04:21:29;;;;;;;12.17;8.50;;;;;;;16.72;100.00;101800.94;5286748;28;20033;-78
2023/08/16 04:24:00;;;;;;;10.03;8.40;;;;;;;16.70;100.00;101808.03;5287178;28;20029;-77
2023/08/16 04:26:32;;;;;;;12.83;8.57;;;;;;;16.64;100.00;101798.47;5286048;28;20059;-77
2023/08/16 04:29:04;;;;;;;11.77;8.47;;;;;;;16.56;100.00;101797.78;5268215;28;20029;-76
2023/08/16 04:31:36;;;;;;;16.70;8.95;;;;;;;16.56;100.00;101800.41;5285501;28;20108;-77
2023/08/16 04:34:07;;;;;;;10.27;8.45;;;;;;;16.58;100.00;101801.25;5285027;28;20036;-77
2023/08/16 04:36:39;;;;;;;9.50;8.50;;;;;;;16.65;100.00;101808.13;5286903;28;20103;-77
2023/08/16 04:39:11;;;;;;;10.17;8.33;;;;;;;16.68;100.00;101799.28;5284884;28;20480;-77
2023/08/16 04:41:42;;;;;;;12.48;7.90;;;;;;;16.88;100.00;101806.78;5267192;28;20028;-76
2023/08/16 04:44:13;;;;;;;9.97;8.00;;;;;;;16.81;100.00;101795.50;5284567;28;20037;-76
2023/08/16 04:46:45;;;;;;;9.27;7.87;;;;;;;16.76;100.00;101798.22;5284598;28;20055;-77
2023/08/16 04:49:16;;;;;;;10.30;8.27;;;;;;;16.66;100.00;101791.41;5284554;28;20036;-77
2023/08/16 04:51:48;;;;;;;11.40;8.53;;;;;;;16.60;100.00;101796.84;5283703;28;20033;-75
2023/08/16 04:54:19;;;;;;;10.53;8.10;;;;;;;16.56;100.00;101795.16;5284119;28;20036;-76
2023/08/16 04:56:50;;;;;;;9.57;8.13;;;;;;;16.54;100.00;101796.97;5284116;28;20099;-76
2023/08/16 04:59:22;;;;;;;12.63;9.03;;;;;;;16.54;100.00;101795.19;5284344;28;20036;-76
2023/08/16 05:01:53;;;;;;;9.27;8.17;;;;;;;16.55;100.00;101799.56;5283851;28;20027;-76
2023/08/16 05:04:24;;;;;;;13.47;8.53;;;;;;;16.51;100.00;101807.56;5266489;28;20423;-76
2023/08/16 05:06:56;;;;;;;11.47;8.97;;;;;;;16.55;100.00;101804.81;5284420;28;20384;-76
2023/08/16 05:09:27;;;;;;;10.83;8.07;;;;;;;16.51;100.00;101807.56;5283921;28;20060;-76
2023/08/16 05:11:59;;;;;;;13.43;8.57;;;;;;;16.48;100.00;101800.56;5283299;28;20138;-76
2023/08/16 05:14:30;;;;;;;8.87;7.93;;;;;;;16.39;100.00;101808.69;5284041;28;20028;-75
2023/08/16 05:17:02;;;;;;;10.53;7.97;;;;;;;16.31;100.00;101813.22;5284000;28;20035;-75
2023/08/16 05:19:33;;;;;;;11.77;8.33;;;;;;;16.30;100.00;101817.63;5283642;28;20032;-75
2023/08/16 05:22:04;;;;;;;12.70;9.43;;;;;;;16.26;100.00;101821.22;5283996;28;20036;-75
2023/08/16 05:24:36;;;;;;;9.60;8.40;;;;;;;16.38;100.00;101822.72;5283923;28;20039;-74
2023/08/16 05:27:12;;;;;;;10.47;9.10;;;;;;;16.39;100.00;101824.47;5283672;28;20115;-75
2023/08/16 05:29:43;;;;;;;9.73;7.85;;;;;;;16.46;100.00;101827.84;5283910;28;20033;-76
2023/08/16 05:32:14;;;;;;;9.90;8.03;;;;;;;16.51;100.00;101828.59;5283544;28;20440;-75
2023/08/16 05:34:46;;;;;;;8.80;7.90;;;;;;;16.56;100.00;101832.00;5283934;28;20094;-76
2023/08/16 05:37:17;;;;;;;9.13;7.67;;;;;;;16.54;100.00;101831.19;5287784;28;20084;-76
2023/08/16 05:39:49;;;;;;;13.00;9.00;;;;;;;16.58;100.00;101825.81;5291787;28;20043;-75
2023/08/16 05:42:20;;;;;;;9.60;7.60;;;;;;;16.62;100.00;101825.75;5290374;28;20028;-75
2023/08/16 05:44:52;;;;;;;9.70;8.23;;;;;;;16.71;100.00;101825.53;5284364;28;20111;-76
2023/08/16 05:47:23;;;;;;;9.87;7.80;;;;;;;16.78;100.00;101830.63;5265878;28;20037;-75
2023/08/16 05:49:55;;;;;;;9.47;7.80;;;;;;;16.81;100.00;101837.63;5283430;28;20035;-76
2023/08/16 05:52:26;;;;;;;10.57;7.20;;;;;;;16.81;100.00;101840.25;5283578;28;20110;-75
2023/08/16 05:54:58;;;;;;;10.00;6.72;;;;;;;16.81;100.00;101845.53;5283306;28;20037;-75
2023/08/16 05:57:29;;;;;;;11.57;7.37;;;;;;;16.97;100.00;101855.72;5283478;28;20484;-75
2023/08/16 06:00:00;;;;;;;10.53;7.07;;;;;;;17.03;99.78;101856.44;5284010;28;20471;-75
2023/08/16 06:02:32;;;;;;;7.50;6.70;;;;;;;17.06;99.39;101864.28;5284728;28;20036;-76
2023/08/16 06:05:04;;;;;;;10.32;6.97;;;;;;;17.03;99.65;101864.34;5287734;28;20517;-75
2023/08/16 06:07:36;;;;;;;13.32;7.32;;;;;;;17.06;99.87;101866.91;5275347;28;20088;-76
2023/08/16 06:10:07;;;;;;;8.90;6.30;;;;;;;17.20;99.60;101866.63;5279184;28;20025;-75
2023/08/16 06:12:39;;;;;;;8.17;6.57;;;;;;;17.31;99.00;101858.47;5298139;28;20082;-75
2023/08/16 06:15:13;;;;;;;9.07;6.97;;;;;;;17.41;99.05;101845.94;5303520;28;20032;-76
2023/08/16 06:17:44;;;;;;;10.00;6.65;;;;;;;17.49;98.38;101854.50;5305197;28;20029;-76
2023/08/16 06:20:16;;;;;;;12.87;6.60;;;;;;;17.57;97.23;101854.34;5304569;28;20035;-77
2023/08/16 06:22:48;;;;;;;12.10;5.97;;;;;;;17.58;97.11;101845.50;5305372;28;20438;-76
2023/08/16 06:25:19;;;;;;;9.33;6.80;;;;;;;17.50;96.48;101856.25;5301892;28;20085;-75
2023/08/16 06:27:51;;;;;;;8.85;6.03;;;;;;;17.48;96.90;101852.78;5297352;28;20031;-76
2023/08/16 06:30:22;;;;;;;7.38;5.85;;;;;;;17.58;96.41;101850.78;5294504;28;20033;-75
2023/08/16 06:32:54;;;;;;;9.63;5.80;;;;;;;17.55;96.00;101856.13;5300951;28;20033;-75
2023/08/16 06:35:26;;;;;;;8.57;6.05;;;;;;;17.66;95.91;101852.31;5297996;28;20032;-76
2023/08/16 06:37:57;;;;;;;6.20;4.90;;;;;;;17.93;94.37;101849.03;5299684;28;20060;-76
2023/08/16 06:40:28;;;;;;;10.60;5.17;;;;;;;17.88;93.80;101854.44;5296774;28;20037;-74
2023/08/16 06:43:01;;;;;;;13.30;5.57;;;;;;;17.97;93.01;101859.47;5297203;28;20036;-75
2023/08/16 06:45:32;;;;;;;10.20;6.38;;;;;;;18.04;92.50;101855.75;5297881;28;20048;-75
2023/08/16 06:48:04;;;;;;;9.67;6.00;;;;;;;18.13;92.05;101849.38;5297751;28;20464;-76
2023/08/16 06:50:35;;;;;;;9.90;4.95;;;;;;;18.23;91.22;101842.06;5269688;28;20047;-74
2023/08/16 06:53:07;;;;;;;9.17;5.00;;;;;;;18.31;90.16;101845.34;5287106;28;20495;-75
2023/08/16 06:55:38;;;;;;;6.80;5.43;;;;;;;18.41;89.06;101853.88;5287007;28;20035;-75
2023/08/16 06:58:10;;;;;;;10.17;4.60;;;;;;;18.52;88.34;101861.50;5269034;28;20024;-76
2023/08/16 07:00:45;;;;;;;13.20;5.35;;;;;;;18.74;87.43;101870.50;5286749;28;20048;-76
2023/08/16 07:03:17;;;;;;;9.27;4.80;;;;;;;18.86;85.85;101871.09;5286485;28;20044;-76
2023/08/16 07:05:50;;;;;;;;;;;;;;;19.16;86.02;101873.69;5286880;28;20031;-75
2023/08/16 07:08:21;;;;;;;7.32;4.30;;;;;;;19.15;83.71;101877.25;5286124;28;20271;-76
2023/08/16 07:10:54;;;;;;;7.67;3.97;;;;;;;19.33;82.90;101874.00;5268310;28;20111;-76
2023/08/16 07:13:25;;;;;;;;;;;;;;;19.75;82.99;101873.50;5286386;28;20093;-75
2023/08/16 07:15:56;;;;;;;7.63;3.80;;;;;;;19.62;81.22;101866.91;5268280;28;19912;-76
2023/08/16 07:18:28;;;;;;;7.50;3.57;;;;;;;19.57;81.24;101859.13;5286348;28;20024;-76
2023/08/16 07:20:59;;;;;;;6.10;4.17;;;;;;;19.61;81.00;101854.59;5285825;28;20056;-75
2023/08/16 07:23:30;;;;;;;6.70;3.40;;;;;;;19.53;78.84;101865.44;5285941;28;20028;-76
2023/08/16 07:26:03;;;;;;;9.67;4.67;;;;;;;19.57;79.54;101875.00;5286148;28;20071;-75
2023/08/16 07:28:34;;;;;;;5.25;3.35;;;;;;;19.79;80.60;101880.47;5285778;28;20065;-76
2023/08/16 07:31:05;;;;;;;7.70;3.10;;;;;;;19.71;76.59;101884.28;5268712;28;20059;-75
2023/08/16 07:33:37;;;;;;;4.83;3.00;;;;;;;19.68;76.89;101878.13;5285544;28;20037;-75
2023/08/16 07:36:08;;;;;;;7.57;3.20;;;;;;;19.92;77.44;101883.56;5285333;28;20024;-75
2023/08/16 07:38:40;;;;;;;10.80;3.63;;;;;;;19.98;76.69;101886.00;5287556;28;20044;-76
2023/08/16 07:41:11;;;;;;;7.97;3.07;;;;;;;20.04;76.34;101883.13;5286026;28;20052;-76
2023/08/16 07:43:42;;;;;;;5.97;3.20;;;;;;;20.16;76.60;101873.88;5285878;28;20028;-75
2023/08/16 07:46:14;;;;;;;9.03;2.90;;;;;;;20.51;75.50;101878.81;5285563;28;20036;-76
2023/08/16 07:48:45;;;;;;;7.57;2.77;;;;;;;20.66;74.02;101883.59;5285576;28;20415;-76
2023/08/16 07:51:17;;;;;;;9.03;3.53;;;;;;;20.78;73.20;101887.53;5285368;28;20039;-76
2023/08/16 07:53:48;;;;;;;6.43;2.47;;;;;;;20.93;72.34;101889.63;5267775;28;20029;-76
2023/08/16 07:56:19;;;;;;;6.97;3.00;;;;;;;21.22;71.07;101894.69;5285650;28;20033;-77
2023/08/16 07:58:51;;;;;;;5.77;3.03;;;;;;;21.47;71.06;101892.75;5285724;28;20036;-76
2023/08/16 08:01:23;;;;;;;6.87;2.50;;;;;;;21.40;70.61;101893.09;5285703;28;20025;-74
2023/08/16 08:03:55;;;;;;;4.97;2.28;;;;;;;21.22;67.46;101892.03;5267878;28;20033;-76
2023/08/16 08:06:26;;;;;;;7.18;2.92;;;;;;;21.08;68.53;101901.41;5285590;28;20039;-74
2023/08/16 08:08:58;;;;;;;5.53;2.87;;;;;;;20.94;69.41;101903.72;5267600;28;20032;-74
2023/08/16 08:11:29;;;;;;;7.93;3.13;;;;;;;21.10;69.37;101901.34;5267589;28;20107;-75
2023/08/16 08:14:01;;;;;;;6.22;2.92;;;;;;;21.28;69.49;101910.34;5285352;28;20028;-75
2023/08/16 08:16:32;;;;;;;8.70;3.37;;;;;;;21.09;69.23;101902.25;5285246;28;20483;-75
2023/08/16 08:19:04;;;;;;;7.80;2.80;;;;;;;21.07;69.15;101904.97;5284722;28;20028;-75
2023/08/16 08:21:35;;;;;;;6.83;3.00;;;;;;;21.19;69.04;101902.75;5284870;28;20035;-76
2023/08/16 08:24:07;;;;;;;5.40;3.07;;;;;;;21.45;67.12;101915.84;5285508;28;20417;-77
2023/08/16 08:26:38;;;;;;;6.30;2.80;;;;;;;21.59;68.10;101901.16;5284866;28;20081;-76
2023/08/16 08:29:09;;;;;;;8.63;2.97;;;;;;;21.76;68.64;101906.66;5284845;28;20025;-74
2023/08/16 08:31:41;;;;;;;9.47;3.10;;;;;;;21.87;66.48;101908.00;5267130;28;20594;-76
2023/08/16 08:34:14;;;;;;;4.23;2.47;;;;;;;22.02;65.74;101907.31;5266527;28;20025;-76
2023/08/16 08:36:45;;;;;;;9.40;3.25;;;;;;;22.19;65.01;101904.81;5284605;28;21366;-76
2023/08/16 08:39:19;;;;;;;6.13;2.90;;;;;;;22.42;64.61;101913.56;5284895;28;20041;-76
2023/08/16 08:41:50;;;;;;;5.30;2.70;;;;;;;22.72;63.25;101916.63;5267181;28;20523;-76
2023/08/16 08:44:22;;;;;;;7.43;2.60;;;;;;;22.98;62.15;101911.91;5284563;28;20128;-77
2023/08/16 08:46:54;;;;;;;7.03;3.00;;;;;;;23.28;59.94;101911.38;5284581;28;20040;-77
2023/08/16 08:49:25;;;;;;;5.88;2.97;;;;;;;23.44;59.17;101919.50;5266446;28;20062;-77
2023/08/16 08:51:58;;;;;;;6.15;3.70;;;;;;;23.53;58.73;101918.19;5284398;28;20028;-76
2023/08/16 08:54:30;;;;;;;6.45;3.13;;;;;;;23.71;60.31;101927.06;5284150;28;20063;-77
2023/08/16 08:57:05;;;;;;;3.72;2.10;;;;;;;23.90;59.51;101927.03;5266876;28;20043;-76
2023/08/16 08:59:39;;;;;;;4.43;2.72;;;;;;;23.70;57.78;101926.19;5267147;28;20043;-76
2023/08/16 09:02:10;;;;;;;6.35;3.03;;;;;;;23.72;58.36;101931.44;5284404;28;20074;-77
2023/08/16 09:04:43;;;;;;;7.95;3.10;;;;;;;23.49;58.64;101933.44;5284647;28;20040;-76
2023/08/16 09:07:17;;;;;;;5.93;3.22;;;;;;;23.44;60.45;101930.13;5284223;28;20078;-75
2023/08/16 09:09:49;;;;;;;7.00;3.30;;;;;;;23.78;60.29;101932.00;5284020;28;20040;-75
2023/08/16 09:12:20;;;;;;;5.53;2.53;;;;;;;24.02;58.65;101932.59;5283731;28;20032;-76
2023/08/16 09:14:52;;;;;;;9.27;3.07;;;;;;;24.45;57.25;101925.94;5265967;28;20433;-76
2023/08/16 09:17:23;;;;;;;7.60;3.07;;;;;;;24.78;56.17;101930.41;5266358;28;20032;-76
2023/08/16 09:19:55;;;;;;;5.83;2.93;;;;;;;24.56;54.02;101932.44;5283671;28;20433;-76
2023/08/16 09:22:28;;;;;;;7.78;3.42;;;;;;;24.24;55.24;101933.28;5266323;28;20263;-75
2023/08/16 09:25:02;;;;;;;6.00;3.08;;;;;;;24.09;58.34;101934.94;5283797;28;20036;-77
2023/08/16 09:27:33;;;;;;;6.78;3.03;;;;;;;23.94;59.15;101925.91;5283812;28;20104;-76
2023/08/16 09:30:05;;;;;;;8.43;3.03;;;;;;;24.10;58.66;101926.00;5283680;28;20571;-77
2023/08/16 09:32:37;;;;;;;8.60;3.50;;;;;;;24.50;57.01;101922.06;5283427;28;20472;-76
2023/08/16 09:35:12;;;;;;;5.50;2.92;;;;;;;24.75;57.95;101920.78;5283581;28;20036;-77
2023/08/16 09:37:44;;;;;;;6.50;3.60;;;;;;;24.47;55.70;101922.25;5284542;28;20044;-76
2023/08/16 09:40:15;;;;;;;8.18;3.35;;;;;;;24.78;56.54;101927.75;5283463;28;20043;-77
2023/08/16 09:42:46;;;;;;;7.22;3.70;;;;;;;24.97;56.37;101920.47;5283591;28;20381;-77
2023/08/16 09:45:35;;;;;;;5.70;3.73;;;;;;;24.77;56.47;101923.38;5283879;28;20476;-76
2023/08/16 09:48:08;;;;;;;6.57;3.63;;;;;;;25.16;57.57;101924.78;5283572;28;20270;-76
2023/08/16 09:50:40;;;;;;;6.90;3.40;;;;;;;25.42;55.16;101921.53;5283310;28;20024;-76
2023/08/16 09:53:12;;;;;;;8.20;3.95;;;;;;;26.01;56.00;101924.28;5283429;28;20040;-76
2023/08/16 09:55:50;;;;;;;5.97;3.40;;;;;;;25.64;53.42;101925.59;5283401;28;20032;-75
2023/08/16 09:58:22;;;;;;;7.30;4.13;;;;;;;25.35;52.69;101922.81;5283365;28;20039;-76
2023/08/16 10:00:58;;;;;;;5.55;3.40;;;;;;;25.53;54.28;101922.69;5283550;28;20036;-76
2023/08/16 10:03:30;;;;;;;5.97;3.63;;;;;;;24.85;54.95;101915.81;5283236;28;20029;-76
2023/08/16 10:06:02;;;;;;;5.97;3.70;;;;;;;24.92;55.52;101919.84;5265538;28;20372;-76
2023/08/16 10:08:33;;;;;;;7.45;3.30;;;;;;;25.22;54.24;101921.75;5283515;28;20051;-76
2023/08/16 10:11:06;;;;;;;6.78;3.38;;;;;;;25.52;52.20;101918.28;5283448;28;20020;-75
2023/08/16 10:13:38;;;;;;;6.57;3.53;;;;;;;25.32;52.73;101912.31;5283646;28;20079;-76
2023/08/16 10:16:13;;;;;;;7.30;3.42;;;;;;;25.50;54.19;101913.03;5283288;28;20036;-76
2023/08/16 10:18:47;;;;;;;6.22;2.65;;;;;;;25.56;53.39;101915.34;5283317;28;20052;-76
2023/08/16 10:21:20;;;;;;;8.48;4.03;;;;;;;25.58;51.81;101925.94;5283236;28;20043;-76
2023/08/16 10:23:55;;;;;;;6.72;3.40;;;;;;;25.52;53.55;101921.84;5265889;28;20033;-76
2023/08/16 10:26:31;;;;;;;7.63;3.70;;;;;;;25.29;54.38;101923.16;5290060;28;20024;-76
2023/08/16 10:29:11;;;;;;;8.10;4.00;;;;;;;25.24;54.65;101920.72;5291700;28;20089;-76
2023/08/16 10:31:46;;;;;;;6.07;4.00;;;;;;;25.64;53.79;101910.44;5270622;28;20031;-76
2023/08/16 10:34:20;;;;;;;6.65;3.45;;;;;;;25.94;54.89;101912.25;5283524;28;20024;-76
2023/08/16 10:36:52;;;;;;;10.38;4.93;;;;;;;25.98;52.61;101916.47;5285303;28;20398;-74
2023/08/16 10:39:24;;;;;;;10.15;4.60;;;;;;;26.80;54.40;101911.47;5283008;28;20044;-76
2023/08/16 10:42:03;;;;;;;5.85;3.53;;;;;;;27.05;52.52;101916.13;5265574;28;20043;-76
2023/08/16 10:44:35;;;;;;;6.82;3.75;;;;;;;27.14;50.41;101909.28;5283121;28;20494;-76
2023/08/16 10:47:08;;;;;;;8.82;4.75;;;;;;;27.14;48.91;101906.63;5283095;28;20120;-76
2023/08/16 10:49:40;;;;;;;6.55;3.40;;;;;;;27.15;51.14;101907.50;5283035;28;20024;-77
2023/08/16 10:52:11;;;;;;;;;;;;;;;28.17;49.01;101905.06;5282769;28;20090;-76
2023/08/16 10:54:42;;;;;;;9.27;3.87;;;;;;;27.41;48.55;101911.16;5282937;28;19920;-76
2023/08/16 10:57:14;;;;;;;5.18;3.30;;;;;;;27.47;47.82;101903.56;5264929;28;20456;-76
2023/08/16 10:59:45;;;;;;;;;;;;;;;28.29;49.14;101905.19;5283205;28;20108;-76
2023/08/16 11:02:17;;;;;;;7.67;3.87;;;;;;;27.26;48.69;101903.13;5282832;28;20377;-76
2023/08/16 11:04:49;;;;;;;8.35;3.70;;;;;;;26.83;50.32;101899.72;5282800;28;20324;-76
2023/08/16 11:07:22;;;;;;;6.97;4.05;;;;;;;27.23;49.73;101899.81;5282394;28;20098;-76
2023/08/16 11:10:00;;;;;;;6.78;3.95;;;;;;;26.79;50.29;101904.41;5284470;28;20463;-77
2023/08/16 11:12:32;;;;;;;7.38;3.25;;;;;;;27.24;50.63;101902.41;5286380;28;20025;-76
2023/08/16 11:15:04;;;;;;;6.93;3.70;;;;;;;27.62;51.34;101906.19;5286429;28;20082;-76
2023/08/16 11:17:35;;;;;;;;;;;;;;;28.48;47.68;101908.31;5286781;28;20028;-75
2023/08/16 11:20:09;;;;;;;9.70;3.80;;;;;;;27.95;46.57;101911.09;5285715;28;19912;-74
2023/08/16 11:22:42;;;;;;;6.85;3.38;;;;;;;27.31;49.38;101904.66;5268695;28;20032;-74
2023/08/16 11:25:13;;;;;;;7.75;4.00;;;;;;;27.84;46.88;101905.59;5286209;28;20040;-77
2023/08/16 11:27:44;;;;;;;;;;;;;;;29.72;46.02;101908.22;5286672;28;20551;-76
2023/08/16 11:30:16;;;;;;;6.45;2.83;;;;;;;29.22;43.94;101896.75;5286282;28;20348;-76
2023/08/16 11:32:47;;;;;;;;;;;;;;;30.48;44.93;101899.69;5269779;28;20043;-77
2023/08/16 11:35:18;;;;;;;9.03;3.30;;;;;;;29.66;41.67;101895.25;5288396;28;19977;-76
2023/08/16 11:37:50;;;;;;;;;;;;;;;30.65;42.80;101896.47;5283936;28;20048;-76
2023/08/16 11:40:22;;;;;;;8.05;3.83;;;;;;;29.08;43.06;101892.41;5307599;28;19915;-78
2023/08/16 11:42:53;;;;;;;;;;;;;;;29.84;42.20;101892.16;5308548;28;20032;-77
2023/08/16 11:45:25;;;;;;;9.03;3.37;;;;;;;29.88;43.48;101898.97;5307621;28;19916;-75